Time;durP1;ratioP1;P1;durP2;ratioP2;P2;SDS_P1;SDS_P2;PMS_P1;PMS_P2;Temp;Humidity;BMP_temperature;BMP_pressure;BME280_temperature;BME280_humidity;BME280_pressure;Samples;Min_cycle;Max_cycle;Signal;HPM_P1;HPM_P2
2021/09/09 00:02:07;;;;;;;8.20;3.25;;;;;;;17.63;60.38;101007.56;5054016;28;20486;-63
2021/09/09 00:04:33;;;;;;;6.15;2.75;;;;;;;17.65;60.43;100993.66;5052153;28;20028;-63
2021/09/09 00:06:58;;;;;;;6.70;3.15;;;;;;;17.63;60.45;101004.94;5053490;28;20475;-65
2021/09/09 00:09:24;;;;;;;6.07;2.90;;;;;;;17.69;60.12;101019.81;5053422;28;20493;-65
2021/09/09 00:11:50;;;;;;;7.32;2.92;;;;;;;17.59;60.38;100994.44;5053095;28;20017;-66
2021/09/09 00:14:16;;;;;;;6.85;3.20;;;;;;;17.77;60.23;101006.91;5052783;28;20463;-66
2021/09/09 00:16:41;;;;;;;6.53;2.78;;;;;;;17.93;59.27;101013.22;5053536;28;20083;-67
2021/09/09 00:19:07;;;;;;;6.43;3.10;;;;;;;18.07;58.75;101018.72;5053197;28;20029;-65
2021/09/09 00:21:32;;;;;;;7.88;3.30;;;;;;;18.20;58.86;101004.97;5052915;28;20036;-67
2021/09/09 00:23:58;;;;;;;6.13;3.00;;;;;;;18.14;58.72;101010.09;5053302;28;20365;-66
2021/09/09 00:26:23;;;;;;;9.07;3.13;;;;;;;18.05;58.90;101009.97;5053151;28;20399;-65
2021/09/09 00:28:49;;;;;;;7.85;2.90;;;;;;;18.10;58.88;101010.91;5053005;28;20036;-64
2021/09/09 00:31:15;;;;;;;7.18;3.28;;;;;;;18.08;58.37;100997.84;5052978;28;20017;-66
2021/09/09 00:33:43;;;;;;;7.65;3.13;;;;;;;18.26;58.03;101019.88;5053041;28;20502;-67
2021/09/09 00:36:09;;;;;;;8.45;3.08;;;;;;;18.23;58.25;101018.09;5052988;28;20021;-65
2021/09/09 00:38:34;;;;;;;6.95;3.15;;;;;;;18.30;58.84;101010.34;5052799;28;20029;-64
2021/09/09 00:41:00;;;;;;;9.32;3.00;;;;;;;18.34;58.40;101010.38;5052937;28;20029;-66
2021/09/09 00:43:26;;;;;;;5.53;2.95;;;;;;;18.36;57.79;101007.81;5052903;28;20045;-69
2021/09/09 00:45:53;;;;;;;4.57;2.83;;;;;;;18.43;57.82;101009.66;5052910;28;20036;-70
2021/09/09 00:48:19;;;;;;;8.52;3.30;;;;;;;18.19;58.98;100977.06;5052708;28;20021;-64
2021/09/09 00:50:45;;;;;;;6.05;2.88;;;;;;;18.48;58.77;101018.44;5052262;28;20036;-64
2021/09/09 00:53:10;;;;;;;5.90;3.08;;;;;;;18.41;58.39;101007.00;5051912;28;20128;-66
2021/09/09 00:55:37;;;;;;;6.20;2.90;;;;;;;18.25;59.30;101012.88;5052999;28;20100;-69
2021/09/09 00:58:02;;;;;;;5.80;2.88;;;;;;;18.26;59.39;101017.25;5052314;28;20463;-67
2021/09/09 01:00:28;;;;;;;7.97;3.00;;;;;;;18.29;59.18;101017.28;5052503;28;20017;-66
2021/09/09 01:02:53;;;;;;;17.95;4.07;;;;;;;18.31;61.67;101014.72;5052576;28;20090;-66
2021/09/09 01:05:19;;;;;;;14.50;3.70;;;;;;;18.17;64.70;101018.00;5051816;28;20475;-66
2021/09/09 01:07:44;;;;;;;11.60;3.45;;;;;;;18.03;66.52;101022.13;5052166;28;20399;-69
2021/09/09 01:10:10;;;;;;;13.23;3.58;;;;;;;17.85;65.75;100999.19;5052433;28;20024;-69
2021/09/09 01:12:36;;;;;;;6.93;3.05;;;;;;;17.87;65.74;101006.19;5052300;28;20028;-67
2021/09/09 01:15:02;;;;;;;9.30;3.47;;;;;;;17.78;66.03;100992.97;5051993;28;20040;-66
2021/09/09 01:17:28;;;;;;;10.82;3.70;;;;;;;17.65;68.24;100986.69;5052228;28;20031;-66
2021/09/09 01:19:54;;;;;;;8.48;3.60;;;;;;;17.55;67.62;100990.88;5051720;28;20100;-67
2021/09/09 01:22:19;;;;;;;6.88;3.17;;;;;;;17.51;67.85;100994.31;5051815;28;20032;-66
2021/09/09 01:24:44;;;;;;;9.88;2.90;;;;;;;17.40;68.24;101003.69;5051837;28;20025;-65
2021/09/09 01:27:10;;;;;;;8.68;3.50;;;;;;;17.41;67.93;101000.22;5052036;28;20036;-65
2021/09/09 01:29:39;;;;;;;6.13;3.15;;;;;;;17.32;68.20;100992.22;5051641;28;20463;-65
2021/09/09 01:32:07;;;;;;;4.95;2.90;;;;;;;17.32;68.50;100997.44;5051761;28;20047;-65
2021/09/09 01:34:33;;;;;;;7.55;3.53;;;;;;;17.30;69.23;100994.81;5051689;28;20021;-65
2021/09/09 01:36:59;;;;;;;6.28;2.72;;;;;;;17.33;67.70;100993.97;5050635;28;20466;-65
2021/09/09 01:39:25;;;;;;;5.95;3.08;;;;;;;17.33;68.42;100983.53;5051693;28;20029;-65
2021/09/09 01:41:53;;;;;;;4.90;3.45;;;;;;;17.27;69.94;100984.31;5051683;28;20060;-65
2021/09/09 01:44:19;;;;;;;6.00;3.20;;;;;;;17.07;71.62;100960.47;5051326;28;20055;-65
2021/09/09 01:46:45;;;;;;;5.28;2.90;;;;;;;16.97;71.45;100975.06;5051591;28;20021;-65
2021/09/09 01:49:11;;;;;;;7.57;3.10;;;;;;;17.08;71.51;100972.66;5051162;28;20494;-65
2021/09/09 01:51:38;;;;;;;6.07;2.90;;;;;;;17.15;71.80;100969.31;5051529;28;20021;-66
2021/09/09 01:54:03;;;;;;;5.22;2.88;;;;;;;17.15;72.07;100951.06;5051747;28;20152;-65
2021/09/09 01:56:29;;;;;;;10.43;3.33;;;;;;;16.88;71.40;100905.31;5051349;28;20077;-68
2021/09/09 01:58:55;;;;;;;5.50;2.67;;;;;;;17.12;70.53;100958.81;5051217;28;20033;-66
2021/09/09 02:01:21;;;;;;;6.05;3.00;;;;;;;17.14;69.65;100959.72;5051517;28;20040;-66
2021/09/09 02:03:46;;;;;;;6.68;2.95;;;;;;;17.13;69.21;100952.75;5051233;28;20384;-67
2021/09/09 02:06:12;;;;;;;10.70;3.10;;;;;;;16.72;70.41;100885.03;5051451;28;20075;-65
2021/09/09 02:08:38;;;;;;;6.43;3.00;;;;;;;16.83;70.19;100906.97;5051204;28;20392;-66
2021/09/09 02:11:03;;;;;;;8.95;3.22;;;;;;;17.04;71.06;100948.25;5051073;28;20396;-66
2021/09/09 02:13:29;;;;;;;7.20;2.78;;;;;;;17.00;70.63;100943.84;5050962;28;20028;-66
2021/09/09 02:15:54;;;;;;;4.43;2.70;;;;;;;16.94;71.12;100951.56;5051258;28;20025;-67
2021/09/09 02:18:19;;;;;;;4.82;2.78;;;;;;;16.89;70.48;100946.22;5050511;28;20086;-65
2021/09/09 02:20:45;;;;;;;4.80;3.22;;;;;;;16.78;71.68;100929.50;5051106;28;20047;-65
2021/09/09 02:23:11;;;;;;;8.27;3.15;;;;;;;16.26;72.56;100898.97;5051399;28;20116;-65
2021/09/09 02:25:38;;;;;;;10.88;3.17;;;;;;;16.42;72.13;100901.84;5050967;28;20032;-65
2021/09/09 02:28:04;;;;;;;5.32;2.92;;;;;;;16.53;71.20;100943.78;5051150;28;20081;-68
2021/09/09 02:30:30;;;;;;;6.00;2.70;;;;;;;16.45;72.10;100936.69;5051146;28;20036;-67
2021/09/09 02:32:56;;;;;;;8.13;2.67;;;;;;;16.31;72.08;100899.03;5050339;28;20036;-65
2021/09/09 02:35:22;;;;;;;4.60;2.50;;;;;;;16.46;71.46;100929.72;5051011;28;20066;-67
2021/09/09 02:37:47;;;;;;;7.50;2.70;;;;;;;16.57;71.50;100937.78;5053587;28;20048;-66
2021/09/09 02:40:14;;;;;;;4.22;2.67;;;;;;;16.56;71.57;100930.78;5055480;28;20024;-66
2021/09/09 02:42:40;;;;;;;6.65;3.17;;;;;;;16.57;71.18;100927.34;5055483;28;20037;-68
2021/09/09 02:45:06;;;;;;;5.25;2.60;;;;;;;16.47;71.18;100915.84;5055179;28;20025;-68
2021/09/09 02:47:32;;;;;;;6.95;2.50;;;;;;;16.52;71.43;100919.44;5055022;28;20483;-68
2021/09/09 02:49:57;;;;;;;5.88;2.65;;;;;;;16.55;70.90;100924.72;5054056;28;20032;-68
2021/09/09 02:52:23;;;;;;;11.13;2.80;;;;;;;16.47;71.67;100931.50;5055153;28;20471;-67
2021/09/09 02:54:48;;;;;;;4.50;2.60;;;;;;;16.46;71.69;100930.63;5055179;28;20545;-67
2021/09/09 02:57:14;;;;;;;6.10;2.47;;;;;;;16.39;71.65;100918.31;5055102;28;20036;-68
2021/09/09 02:59:39;;;;;;;5.50;2.70;;;;;;;16.39;71.60;100922.66;5055318;28;20068;-67
2021/09/09 03:02:04;;;;;;;4.75;2.72;;;;;;;16.39;71.68;100922.66;5055082;28;20024;-67
2021/09/09 03:04:30;;;;;;;7.43;2.97;;;;;;;16.41;71.92;100926.16;5054687;28;20027;-68
2021/09/09 03:06:57;;;;;;;9.35;2.47;;;;;;;16.22;71.30;100885.81;5055046;28;20029;-67
2021/09/09 03:09:22;;;;;;;9.93;2.70;;;;;;;16.44;71.55;100908.00;5055284;28;20082;-67
2021/09/09 03:11:48;;;;;;;9.13;3.10;;;;;;;16.41;72.02;100906.19;5054921;28;20025;-67
2021/09/09 03:14:13;;;;;;;7.30;2.50;;;;;;;16.09;72.44;100872.56;5054652;28;20028;-67
2021/09/09 03:16:39;;;;;;;6.78;2.60;;;;;;;16.36;72.58;100910.41;5054497;28;20111;-66
2021/09/09 03:19:04;;;;;;;12.20;3.00;;;;;;;16.36;72.44;100914.75;5054818;28;20402;-67
2021/09/09 03:21:30;;;;;;;4.32;2.80;;;;;;;16.32;72.36;100912.09;5054698;28;20028;-67
2021/09/09 03:23:55;;;;;;;6.03;2.63;;;;;;;16.34;72.24;100912.13;5054656;28;20491;-67
2021/09/09 03:26:21;;;;;;;4.82;2.50;;;;;;;16.18;72.02;100884.88;5054903;28;20025;-67
2021/09/09 03:28:47;;;;;;;7.00;2.60;;;;;;;16.34;71.64;100914.75;5054725;28;20028;-66
2021/09/09 03:31:12;;;;;;;5.75;2.60;;;;;;;16.37;71.68;100908.72;5054201;28;20020;-66
2021/09/09 03:33:38;;;;;;;8.15;2.88;;;;;;;16.16;72.05;100858.81;5054280;28;20033;-69
2021/09/09 03:36:04;;;;;;;5.35;2.70;;;;;;;16.36;72.41;100896.53;5054200;28;20480;-67
2021/09/09 03:38:29;;;;;;;8.20;2.95;;;;;;;16.20;74.74;100891.00;5054307;28;20120;-66
2021/09/09 03:40:55;;;;;;;9.63;2.90;;;;;;;16.17;74.77;100896.13;5054472;28;20068;-67
2021/09/09 03:43:21;;;;;;;9.07;2.95;;;;;;;16.13;76.72;100892.59;5054442;28;20502;-67
2021/09/09 03:45:46;;;;;;;8.25;3.05;;;;;;;16.10;76.47;100887.34;5053976;28;20104;-67
2021/09/09 03:48:12;;;;;;;7.00;3.10;;;;;;;16.03;77.70;100889.78;5053459;28;20468;-66
2021/09/09 03:50:37;;;;;;;9.07;3.15;;;;;;;15.90;77.34;100880.81;5053874;28;20439;-67
2021/09/09 03:53:03;;;;;;;5.50;2.80;;;;;;;15.94;77.87;100885.25;5053869;28;20045;-67
2021/09/09 03:55:28;;;;;;;6.85;3.10;;;;;;;16.03;77.24;100890.66;5054117;28;20029;-66
2021/09/09 03:57:54;;;;;;;9.00;3.10;;;;;;;16.03;77.62;100893.25;5054075;28;20502;-66
2021/09/09 04:00:19;;;;;;;5.93;2.70;;;;;;;16.04;78.15;100900.22;5052643;28;20029;-67
2021/09/09 04:02:45;;;;;;;7.20;3.35;;;;;;;16.07;77.17;100894.19;5054412;28;20037;-66
2021/09/09 04:05:10;;;;;;;9.43;3.13;;;;;;;16.10;76.98;100897.75;5054057;28;20460;-67
2021/09/09 04:07:36;;;;;;;5.78;2.85;;;;;;;16.17;77.98;100917.88;5053985;28;20033;-67
2021/09/09 04:10:03;;;;;;;5.40;3.00;;;;;;;16.21;78.02;100912.72;5053960;28;20029;-67
2021/09/09 04:12:28;;;;;;;7.85;3.90;;;;;;;16.17;80.14;100922.19;5054049;28;20037;-67
2021/09/09 04:14:54;;;;;;;6.70;3.20;;;;;;;16.16;79.64;100913.50;5053466;28;20033;-67
2021/09/09 04:17:19;;;;;;;6.55;3.20;;;;;;;16.19;80.29;100923.13;5051670;28;20032;-67
2021/09/09 04:19:45;;;;;;;9.13;3.50;;;;;;;16.00;80.34;100888.84;5053584;28;20025;-67
2021/09/09 04:22:12;;;;;;;8.77;3.50;;;;;;;16.29;80.79;100925.06;5053373;28;20131;-67
2021/09/09 04:24:37;;;;;;;9.95;4.03;;;;;;;16.38;80.33;100933.94;5046974;28;20116;-69
2021/09/09 04:27:04;;;;;;;11.00;3.90;;;;;;;16.20;81.20;100903.13;5044267;28;20120;-67
2021/09/09 04:29:30;;;;;;;9.98;3.67;;;;;;;16.28;81.52;100912.88;5050425;28;20514;-67
2021/09/09 04:31:55;;;;;;;9.50;3.67;;;;;;;16.40;81.34;100934.81;5053621;28;20053;-70
2021/09/09 04:34:21;;;;;;;11.63;3.83;;;;;;;16.31;82.35;100922.47;5053329;28;20104;-66
2021/09/09 04:36:46;;;;;;;8.82;3.55;;;;;;;16.26;81.45;100924.13;5052819;28;20048;-67
2021/09/09 04:39:12;;;;;;;7.75;4.15;;;;;;;16.32;80.89;100925.13;5033183;28;20495;-67
2021/09/09 04:41:37;;;;;;;9.07;3.10;;;;;;;16.14;79.94;100885.69;5033346;28;20048;-67
2021/09/09 04:44:06;;;;;;;7.60;3.22;;;;;;;16.14;79.96;100885.69;5033147;28;20029;-65
2021/09/09 04:46:32;;;;;;;6.70;3.35;;;;;;;16.41;79.97;100933.97;5033244;28;20472;-65
2021/09/09 04:48:58;;;;;;;10.23;3.58;;;;;;;16.14;80.58;100907.38;5033154;28;20025;-65
2021/09/09 04:51:24;;;;;;;6.63;3.42;;;;;;;16.32;80.20;100937.25;5033040;28;20117;-65
2021/09/09 04:53:49;;;;;;;7.47;3.00;;;;;;;16.37;80.68;100939.97;5033338;28;20053;-65
2021/09/09 04:56:15;;;;;;;6.22;3.15;;;;;;;16.36;81.11;100923.44;5032723;28;20087;-65
2021/09/09 04:58:40;;;;;;;7.70;3.33;;;;;;;16.32;80.83;100922.53;5033000;28;20045;-65
2021/09/09 05:01:06;;;;;;;9.48;3.67;;;;;;;16.35;80.64;100921.72;5032504;28;20116;-65
2021/09/09 05:03:32;;;;;;;8.73;3.75;;;;;;;16.40;81.05;100925.28;5033009;28;20029;-65
2021/09/09 05:05:57;;;;;;;8.70;3.38;;;;;;;16.50;80.38;100914.19;5032751;28;20025;-67
2021/09/09 05:08:23;;;;;;;7.25;3.60;;;;;;;16.72;79.91;100927.63;5033123;28;20033;-67
2021/09/09 05:10:48;;;;;;;8.25;3.25;;;;;;;16.68;79.27;100910.19;5032531;28;20032;-67
2021/09/09 05:13:14;;;;;;;8.27;3.35;;;;;;;16.73;79.83;100920.69;5033080;28;20041;-67
2021/09/09 05:15:42;;;;;;;8.38;3.28;;;;;;;16.76;78.38;100916.44;5032719;28;20029;-67
2021/09/09 05:18:08;;;;;;;7.15;3.30;;;;;;;16.84;79.90;100923.53;5032512;28;20025;-67
2021/09/09 05:20:33;;;;;;;6.72;3.30;;;;;;;16.92;79.13;100920.22;5032272;28;20032;-67
2021/09/09 05:22:59;;;;;;;6.68;3.40;;;;;;;17.03;78.06;100923.00;5032346;28;20048;-67
2021/09/09 05:25:24;;;;;;;20.17;5.43;;;;;;;16.97;78.69;100922.91;5032347;28;20017;-67
2021/09/09 05:27:50;;;;;;;26.73;5.95;;;;;;;17.07;80.22;100918.72;5032011;28;20026;-67
2021/09/09 05:30:15;;;;;;;15.95;4.40;;;;;;;17.17;77.06;100915.44;5032210;28;20049;-67
2021/09/09 05:32:41;;;;;;;11.98;4.07;;;;;;;17.29;77.29;100926.06;5032379;28;20450;-68
2021/09/09 05:35:08;;;;;;;8.15;3.75;;;;;;;17.32;76.39;100920.06;5032143;28;20026;-67
2021/09/09 05:37:33;;;;;;;9.30;3.67;;;;;;;17.15;79.02;100878.00;5032400;28;20030;-67
2021/09/09 05:39:59;;;;;;;6.60;2.97;;;;;;;17.51;76.21;100935.97;5032324;28;20496;-65
2021/09/09 05:42:25;;;;;;;6.88;3.45;;;;;;;17.63;77.85;100934.47;5031748;28;20403;-65
2021/09/09 05:44:51;;;;;;;10.82;3.80;;;;;;;17.69;76.61;100925.81;5032238;28;20025;-66
2021/09/09 05:47:17;;;;;;;7.43;3.30;;;;;;;17.60;77.01;100923.94;5032321;28;20025;-65
2021/09/09 05:49:42;;;;;;;8.95;3.70;;;;;;;17.71;76.15;100923.25;5031951;28;20051;-65
2021/09/09 05:52:08;;;;;;;7.32;3.30;;;;;;;17.86;75.45;100931.31;5032120;28;20383;-65
2021/09/09 05:54:34;;;;;;;10.23;3.47;;;;;;;18.01;75.04;100932.41;5031654;28;20055;-65
2021/09/09 05:57:03;;;;;;;11.15;2.78;;;;;;;17.99;73.10;100924.53;5031684;28;20502;-65
2021/09/09 05:59:29;;;;;;;11.37;3.47;;;;;;;17.94;75.39;100903.59;5047482;28;20029;-65
2021/09/09 06:01:55;;;;;;;7.90;3.55;;;;;;;18.04;75.64;100925.47;5034557;28;20041;-65
2021/09/09 06:04:21;;;;;;;6.85;3.05;;;;;;;18.15;75.22;100916.94;5032173;28;20029;-65
2021/09/09 06:06:47;;;;;;;8.57;3.17;;;;;;;18.16;73.70;100916.06;5031640;28;20030;-65
2021/09/09 06:09:13;;;;;;;5.47;2.47;;;;;;;18.22;72.00;100916.16;5031786;28;20502;-64
2021/09/09 06:11:38;;;;;;;6.75;2.75;;;;;;;18.21;71.61;100914.38;5037216;28;20458;-66
2021/09/09 06:14:04;;;;;;;6.35;3.10;;;;;;;18.24;72.26;100907.47;5047982;28;20021;-67
2021/09/09 06:16:31;;;;;;;6.30;2.60;;;;;;;18.31;72.43;100899.69;5042105;28;20020;-68
2021/09/09 06:18:57;;;;;;;6.22;3.03;;;;;;;18.20;74.04;100862.97;5022639;28;20045;-67
2021/09/09 06:21:23;;;;;;;7.75;2.95;;;;;;;18.51;72.73;100898.19;5039748;28;20178;-66
2021/09/09 06:23:49;;;;;;;11.05;2.95;;;;;;;18.66;72.07;100907.94;5045042;28;20538;-68
2021/09/09 06:26:15;;;;;;;7.10;2.55;;;;;;;18.45;69.70;100863.25;5047308;28;20025;-68
2021/09/09 06:28:40;;;;;;;7.05;2.80;;;;;;;18.77;69.94;100910.66;5045413;28;20105;-67
2021/09/09 06:31:06;;;;;;;8.18;2.90;;;;;;;18.77;69.75;100915.91;5045558;28;20503;-66
2021/09/09 06:33:32;;;;;;;7.70;2.83;;;;;;;18.80;69.37;100915.06;5046474;28;20033;-66
2021/09/09 06:35:57;;;;;;;12.60;3.55;;;;;;;18.76;70.10;100903.69;5044601;28;20030;-66
2021/09/09 06:38:23;;;;;;;8.05;3.20;;;;;;;18.82;69.38;100914.19;5040114;28;20037;-66
2021/09/09 06:40:48;;;;;;;9.40;3.30;;;;;;;18.80;68.79;100915.06;5041898;28;20029;-68
2021/09/09 06:43:14;;;;;;;9.98;2.80;;;;;;;18.79;69.21;100913.28;5040634;28;20025;-66
2021/09/09 06:45:42;;;;;;;6.35;2.75;;;;;;;18.73;68.45;100917.59;5040517;28;20104;-66
2021/09/09 06:48:08;;;;;;;7.93;2.92;;;;;;;18.67;70.07;100909.69;5048865;28;20033;-70
2021/09/09 06:50:33;;;;;;;5.85;2.75;;;;;;;18.68;70.31;100914.06;5040360;28;20084;-66
2021/09/09 06:52:59;;;;;;;6.93;2.72;;;;;;;18.55;71.18;100876.44;5031433;28;20140;-66
2021/09/09 06:55:24;;;;;;;5.53;2.72;;;;;;;18.78;69.27;100906.28;5031038;28;20026;-67
2021/09/09 06:57:50;;;;;;;5.05;2.60;;;;;;;18.56;69.57;100872.94;5031703;28;20104;-67
2021/09/09 07:00:16;;;;;;;6.78;2.90;;;;;;;18.68;70.47;100887.91;5031314;28;20415;-66
2021/09/09 07:02:41;;;;;;;9.65;3.35;;;;;;;18.61;70.12;100864.31;5032092;28;20124;-68
2021/09/09 07:05:07;;;;;;;7.55;2.90;;;;;;;18.87;70.20;100916.88;5031310;28;20377;-68
2021/09/09 07:07:33;;;;;;;5.63;2.60;;;;;;;18.91;69.48;100921.28;5031212;28;20083;-69
2021/09/09 07:09:58;;;;;;;9.98;2.90;;;;;;;18.66;69.81;100860.00;5031355;28;20029;-68
2021/09/09 07:12:24;;;;;;;12.23;3.08;;;;;;;19.07;69.09;100919.72;5031403;28;20029;-68
2021/09/09 07:14:49;;;;;;;5.95;2.38;;;;;;;19.15;69.04;100914.53;5031367;28;20028;-67
2021/09/09 07:17:14;;;;;;;8.23;2.65;;;;;;;18.96;68.83;100882.97;5031106;28;20400;-68
2021/09/09 07:19:40;;;;;;;8.18;2.45;;;;;;;19.21;68.28;100922.44;5031260;28;20450;-68
2021/09/09 07:22:05;;;;;;;5.28;2.30;;;;;;;19.24;68.59;100918.13;5030986;28;20408;-68
2021/09/09 07:24:31;;;;;;;8.10;2.88;;;;;;;19.27;68.03;100916.41;5034119;28;20026;-68
2021/09/09 07:26:56;;;;;;;8.80;2.53;;;;;;;19.35;69.15;100905.13;5035327;28;20027;-67
2021/09/09 07:29:23;;;;;;;7.70;3.10;;;;;;;19.42;67.80;100902.53;5035041;28;20415;-68
2021/09/09 07:31:48;;;;;;;7.90;2.70;;;;;;;19.23;68.10;100857.91;5034825;28;20480;-67
2021/09/09 07:34:14;;;;;;;10.38;2.70;;;;;;;19.50;69.24;100898.22;5033599;28;20040;-67
2021/09/09 07:36:40;;;;;;;8.63;3.05;;;;;;;19.53;68.08;100909.59;5034864;28;20029;-67
2021/09/09 07:39:05;;;;;;;8.48;2.70;;;;;;;19.67;68.74;100916.69;5034816;28;20519;-67
2021/09/09 07:41:32;;;;;;;7.30;2.85;;;;;;;19.52;69.38;100886.03;5034969;28;20017;-67
2021/09/09 07:43:57;;;;;;;17.35;4.63;;;;;;;19.74;68.42;100923.72;5034697;28;20140;-67
2021/09/09 07:46:23;;;;;;;21.17;5.22;;;;;;;19.88;68.67;100922.06;5034515;28;20037;-67
2021/09/09 07:48:50;;;;;;;13.80;3.42;;;;;;;19.96;67.54;100911.66;5034663;28;20030;-67
2021/09/09 07:51:18;;;;;;;19.77;4.55;;;;;;;20.10;66.97;100909.09;5034245;28;20021;-68
2021/09/09 07:53:44;;;;;;;9.68;2.88;;;;;;;20.26;67.15;100917.91;5015533;28;20048;-68
2021/09/09 07:56:10;;;;;;;21.10;4.50;;;;;;;20.30;65.14;100924.91;5034411;28;20117;-68
2021/09/09 07:58:36;;;;;;;24.27;5.70;;;;;;;20.39;65.77;100926.69;5016129;28;20092;-68
2021/09/09 08:01:01;;;;;;;21.25;4.57;;;;;;;20.46;65.69;100903.97;5034488;28;20145;-68
2021/09/09 08:03:27;;;;;;;20.25;4.68;;;;;;;20.58;66.21;100906.63;5034372;28;20499;-68
2021/09/09 08:05:53;;;;;;;9.10;3.05;;;;;;;20.78;67.38;100900.59;5034221;28;20419;-68
2021/09/09 08:08:19;;;;;;;19.00;4.45;;;;;;;20.99;63.31;100900.63;5034230;28;20032;-67
2021/09/09 08:10:45;;;;;;;19.92;4.68;;;;;;;21.25;61.79;100902.38;5034724;28;20096;-67
2021/09/09 08:13:10;;;;;;;20.15;5.07;;;;;;;21.39;60.11;100897.13;5034291;28;20472;-68
2021/09/09 08:15:37;;;;;;;8.52;2.40;;;;;;;21.53;59.22;100899.72;5033993;28;20033;-68
2021/09/09 08:18:03;;;;;;;14.98;3.65;;;;;;;21.80;59.36;100892.69;5033852;28;20029;-68
2021/09/09 08:20:29;;;;;;;6.32;2.53;;;;;;;22.01;58.03;100890.88;5015365;28;20045;-67
2021/09/09 08:22:55;;;;;;;9.80;2.92;;;;;;;22.00;58.86;100884.75;5033610;28;20065;-67
2021/09/09 08:25:23;;;;;;;7.80;2.58;;;;;;;22.19;57.85;100892.56;5035095;28;20499;-67
2021/09/09 08:27:50;;;;;;;10.30;2.85;;;;;;;22.20;57.07;100861.00;5038630;28;20434;-65
2021/09/09 08:30:15;;;;;;;8.52;2.72;;;;;;;22.36;57.24;100895.13;5042241;28;20025;-65
2021/09/09 08:32:41;;;;;;;10.02;2.60;;;;;;;22.49;56.33;100888.06;5045096;28;20032;-66
2021/09/09 08:35:08;;;;;;;5.32;2.13;;;;;;;22.57;55.51;100895.03;5035524;28;20052;-67
2021/09/09 08:37:33;;;;;;;6.30;2.28;;;;;;;22.50;57.14;100881.94;5042666;28;20029;-64
2021/09/09 08:39:59;;;;;;;8.85;2.45;;;;;;;22.34;57.63;100889.00;5037156;28;20055;-67
2021/09/09 08:42:25;;;;;;;11.43;2.40;;;;;;;22.07;57.17;100856.66;5045896;28;20514;-63
2021/09/09 08:44:50;;;;;;;6.53;2.20;;;;;;;22.14;56.88;100868.91;5052663;28;20035;-64
2021/09/09 08:47:16;;;;;;;7.80;2.30;;;;;;;22.05;57.54;100874.22;5052447;28;20032;-65
2021/09/09 08:49:43;;;;;;;13.98;2.97;;;;;;;22.42;58.23;100884.59;5043954;28;20061;-64
2021/09/09 08:52:11;;;;;;;7.78;2.08;;;;;;;22.51;57.36;100876.66;5050688;28;20060;-67
2021/09/09 08:54:36;;;;;;;17.65;2.72;;;;;;;22.27;55.86;100846.06;5051637;28;20053;-69
2021/09/09 08:57:02;;;;;;;8.30;2.13;;;;;;;22.29;57.01;100853.06;5051516;28;20066;-63
2021/09/09 08:59:27;;;;;;;12.85;3.17;;;;;;;22.54;56.83;100875.75;5051697;28;20079;-69
2021/09/09 09:02:04;;;;;;;7.82;2.47;;;;;;;22.80;57.20;100864.19;5051540;28;20044;-67
2021/09/09 09:04:30;;;;;;;7.28;2.50;;;;;;;22.77;56.35;100836.13;5064937;28;20024;-68
2021/09/09 09:06:55;;;;;;;10.45;2.28;;;;;;;22.89;54.31;100829.88;5050899;28;20036;-66
2021/09/09 09:09:24;;;;;;;9.43;2.47;;;;;;;22.98;54.79;100860.53;5052150;28;20025;-65
2021/09/09 09:11:51;;;;;;;8.75;2.00;;;;;;;23.07;54.79;100865.72;5043760;28;20044;-64
2021/09/09 09:14:19;;;;;;;5.30;2.00;;;;;;;22.75;54.28;100778.25;5040114;28;20025;-65
2021/09/09 09:16:46;;;;;;;10.00;2.92;;;;;;;23.48;54.06;100861.84;5045612;28;20091;-68
2021/09/09 09:19:14;;;;;;;8.98;2.67;;;;;;;23.67;52.94;100853.75;5021737;28;20410;-65
2021/09/09 09:21:44;;;;;;;5.50;2.10;;;;;;;23.72;52.97;100858.06;5037127;28;20072;-67
2021/09/09 09:24:10;;;;;;;;;;;;;;;23.70;52.72;100858.97;5038577;28;20501;-65
2021/09/09 09:26:35;;;;;;;6.95;2.10;;;;;;;23.64;50.74;100853.78;5039846;28;19917;-63
2021/09/09 09:29:01;;;;;;;7.15;2.33;;;;;;;23.58;50.70;100850.31;5042901;28;20033;-63
2021/09/09 09:31:29;;;;;;;21.20;3.92;;;;;;;23.52;51.02;100858.28;5040634;28;20056;-63
2021/09/09 09:33:55;;;;;;;16.27;4.03;;;;;;;23.30;51.64;100852.34;5034533;28;20384;-65
2021/09/09 09:36:27;;;;;;;18.38;3.28;;;;;;;23.21;52.28;100861.22;5034641;28;20020;-64
2021/09/09 09:39:06;;;;;;;10.57;2.78;;;;;;;23.15;52.45;100863.03;5042429;28;20059;-67
2021/09/09 09:41:32;;;;;;;;;;;;;;;23.08;53.32;100857.81;5038763;28;20029;-68
2021/09/09 09:44:03;;;;;;;8.80;2.50;;;;;;;22.63;53.79;100759.94;5034106;28;20368;-69
2021/09/09 09:46:38;;;;;;;7.68;2.70;;;;;;;22.97;53.78;100827.16;5031958;28;20502;-66
2021/09/09 09:49:21;;;;;;;14.40;3.40;;;;;;;22.86;53.08;100838.69;5030447;28;20013;-69
2021/09/09 09:51:49;;;;;;;8.30;2.92;;;;;;;22.94;55.27;100843.88;5031026;28;20025;-67
2021/09/09 09:54:16;;;;;;;14.00;2.72;;;;;;;22.74;54.18;100802.81;5033792;28;20037;-68
2021/09/09 09:56:44;;;;;;;10.02;2.40;;;;;;;22.91;54.37;100820.22;5033775;28;20053;-66
2021/09/09 09:59:09;;;;;;;7.80;2.30;;;;;;;22.87;53.05;100824.63;5034909;28;20052;-66
2021/09/09 10:01:36;;;;;;;26.73;4.13;;;;;;;22.88;53.55;100838.66;5033642;28;20068;-67
2021/09/09 10:04:07;;;;;;;18.25;3.95;;;;;;;22.69;53.48;100801.97;5036049;28;20028;-66
2021/09/09 10:06:34;;;;;;;9.55;2.20;;;;;;;22.86;53.79;100837.81;5034369;28;20986;-69
2021/09/09 10:09:00;;;;;;;6.03;2.17;;;;;;;22.79;53.57;100829.06;5044217;28;20116;-68
2021/09/09 10:11:27;;;;;;;6.10;2.22;;;;;;;22.51;53.63;100802.13;5044653;28;20118;-68
2021/09/09 10:13:54;;;;;;;5.93;2.30;;;;;;;22.69;53.59;100841.47;5051867;28;20052;-68
2021/09/09 10:16:22;;;;;;;11.77;2.33;;;;;;;22.64;53.49;100843.22;5051466;28;20021;-66
2021/09/09 10:18:49;;;;;;;12.27;2.70;;;;;;;22.58;53.70;100844.16;5051163;28;20116;-68
2021/09/09 10:21:44;;;;;;;5.55;1.98;;;;;;;22.43;53.41;100834.59;5051203;28;20391;-67
2021/09/09 10:24:14;;;;;;;3.65;1.70;;;;;;;22.39;53.75;100824.09;5051424;28;20079;-67
2021/09/09 10:26:39;;;;;;;;;;;;;;;22.36;54.39;100829.38;5051975;28;20466;-67
2021/09/09 10:29:08;;;;;;;9.52;2.53;;;;;;;22.16;55.21;100811.03;5051413;28;20012;-66
2021/09/09 10:31:52;;;;;;;9.20;2.05;;;;;;;22.38;53.32;100840.75;5051298;28;20032;-67
2021/09/09 10:34:23;;;;;;;7.43;2.25;;;;;;;22.46;54.51;100828.44;5050989;28;20033;-67
2021/09/09 10:36:48;;;;;;;10.32;2.45;;;;;;;22.50;53.62;100826.69;5051139;28;20056;-68
2021/09/09 10:39:35;;;;;;;4.57;1.77;;;;;;;22.50;53.56;100831.94;5050902;28;20126;-67
2021/09/09 10:42:38;;;;;;;7.60;2.28;;;;;;;22.48;53.65;100823.16;5051284;28;20029;-68
2021/09/09 10:45:06;;;;;;;9.52;1.95;;;;;;;22.10;52.09;100783.91;5051315;28;20465;-66
2021/09/09 10:47:58;;;;;;;4.10;1.90;;;;;;;22.39;52.12;100821.47;5051192;28;20550;-68
2021/09/09 10:50:24;;;;;;;6.55;1.95;;;;;;;22.51;52.82;100825.78;5009014;28;20034;-67
2021/09/09 10:53:05;;;;;;;6.68;1.90;;;;;;;22.74;51.89;100815.97;5002141;28;20038;-68
2021/09/09 10:55:35;;;;;;;7.10;2.10;;;;;;;22.99;50.79;100814.88;5003597;28;20497;-69
2021/09/09 10:58:26;;;;;;;8.27;2.03;;;;;;;23.21;51.97;100802.41;5010229;28;20030;-70
2021/09/09 11:00:55;;;;;;;9.50;2.67;;;;;;;23.10;51.98;100763.88;5023356;28;20516;-69
2021/09/09 11:03:39;;;;;;;6.82;2.15;;;;;;;23.46;50.96;100796.88;5021920;28;20050;-68
2021/09/09 11:06:14;;;;;;;7.68;2.40;;;;;;;23.52;49.82;100804.72;5020777;28;20037;-68
2021/09/09 11:08:41;;;;;;;5.50;2.28;;;;;;;23.41;48.35;100795.19;5019545;28;20038;-68
2021/09/09 11:11:12;;;;;;;5.85;2.05;;;;;;;23.35;48.59;100797.91;5021588;28;20034;-67
2021/09/09 11:13:38;;;;;;;13.95;3.10;;;;;;;23.31;49.33;100777.72;5016095;28;20029;-69
2021/09/09 11:16:24;;;;;;;17.63;2.67;;;;;;;23.43;49.33;100797.81;5012287;28;20172;-66
2021/09/09 11:18:51;;;;;;;7.10;2.25;;;;;;;23.43;46.13;100785.47;5011059;28;20037;-69
2021/09/09 11:21:19;;;;;;;10.80;2.80;;;;;;;23.41;46.15;100773.22;5008844;28;20102;-67
2021/09/09 11:23:46;;;;;;;7.43;2.03;;;;;;;23.58;45.57;100771.25;5011027;28;20029;-68